createdAt,value
2022-11-30T00:02:07.313Z,80.75
2022-11-30T00:07:09.917Z,81.00
2022-11-30T00:12:12.747Z,81.19
2022-11-30T00:17:15.617Z,81.31
2022-11-30T00:22:18.008Z,81.31
2022-11-30T00:27:21.219Z,81.25
2022-11-30T00:32:26.026Z,81.33
2022-11-30T00:37:28.433Z,81.39
2022-11-30T00:42:30.989Z,81.60
2022-11-30T00:47:33.554Z,81.86
2022-11-30T00:52:36.046Z,81.82
2022-11-30T00:57:38.650Z,81.81
2022-11-30T01:02:41.774Z,82.17
2022-11-30T01:07:44.991Z,82.11
2022-11-30T01:12:47.450Z,81.99
2022-11-30T01:17:50.670Z,82.10
2022-11-30T01:22:54.588Z,82.04
2022-11-30T01:27:57.287Z,82.06
2022-11-30T01:33:04.576Z,82.00
2022-11-30T01:38:06.880Z,81.99
2022-11-30T01:43:12.956Z,82.04
2022-11-30T01:48:15.909Z,81.97
2022-11-30T01:53:18.774Z,81.93
2022-11-30T01:58:29.169Z,81.93
2022-11-30T02:03:43.748Z,81.76
2022-11-30T02:08:46.520Z,81.92
2022-11-30T02:14:35.964Z,81.91
2022-11-30T02:20:03.100Z,81.57
2022-11-30T02:25:25.092Z,81.67
2022-11-30T02:30:31.692Z,81.50
2022-11-30T02:35:39.001Z,81.41
2022-11-30T02:40:41.317Z,81.54
2022-11-30T02:46:01.760Z,81.50
2022-11-30T02:51:09.542Z,81.58
2022-11-30T02:56:12.360Z,81.58
2022-11-30T03:01:15.882Z,81.71
2022-11-30T03:06:18.376Z,81.65
2022-11-30T03:11:20.877Z,81.48
2022-11-30T03:16:23.611Z,81.54
2022-11-30T03:21:26.673Z,81.67
2022-11-30T03:26:29.264Z,81.96
2022-11-30T03:31:32.044Z,82.09
2022-11-30T03:36:35.170Z,82.15
2022-11-30T03:41:38.486Z,81.97
2022-11-30T03:46:41.336Z,81.54
2022-11-30T03:51:44.102Z,81.39
2022-11-30T03:56:46.892Z,81.26
2022-11-30T04:01:49.441Z,81.53
2022-11-30T04:06:52.184Z,81.56
2022-11-30T04:11:55.087Z,81.42
2022-11-30T04:16:57.603Z,81.32
2022-11-30T04:22:00.166Z,81.29
2022-11-30T04:27:03.258Z,81.36
2022-11-30T04:32:05.924Z,81.43
2022-11-30T04:37:08.378Z,81.59
2022-11-30T04:42:10.855Z,81.56
2022-11-30T04:47:13.276Z,81.49
2022-11-30T04:52:16.254Z,81.42
2022-11-30T04:57:19.665Z,81.49
2022-11-30T05:02:22.178Z,81.51
2022-11-30T05:07:25.212Z,81.48
2022-11-30T05:12:27.769Z,81.59
2022-11-30T05:17:30.678Z,81.70
2022-11-30T05:22:34.939Z,81.57
2022-11-30T05:27:38.088Z,81.75
2022-11-30T05:32:40.518Z,81.79
2022-11-30T05:37:43.416Z,81.69
2022-11-30T05:42:46.128Z,81.61
2022-11-30T05:47:48.660Z,81.54
2022-11-30T05:52:56.186Z,81.68
2022-11-30T05:57:59.120Z,81.72
2022-11-30T06:03:02.029Z,81.71
2022-11-30T06:08:05.564Z,81.74
2022-11-30T06:13:09.589Z,81.64
2022-11-30T06:18:13.392Z,81.73
2022-11-30T06:23:15.892Z,81.89
2022-11-30T06:28:18.323Z,81.87
2022-11-30T06:33:24.672Z,81.86
2022-11-30T06:38:27.282Z,81.76
2022-11-30T06:43:37.005Z,81.84
2022-11-30T06:48:39.521Z,81.96
2022-11-30T06:53:46.842Z,81.98
2022-11-30T06:58:50.155Z,82.00
2022-11-30T07:03:53.164Z,82.03
2022-11-30T07:08:55.538Z,82.08
2022-11-30T07:13:58.332Z,81.93
2022-11-30T07:19:01.036Z,81.74
2022-11-30T07:24:22.995Z,81.86
2022-11-30T07:29:25.925Z,81.90
2022-11-30T07:34:28.486Z,81.79
2022-11-30T07:39:31.803Z,81.72
2022-11-30T07:44:34.602Z,81.76
2022-11-30T07:49:39.467Z,81.62
2022-11-30T07:54:41.998Z,81.48
2022-11-30T07:59:44.651Z,81.47
2022-11-30T08:04:47.844Z,81.39
2022-11-30T08:09:53.078Z,81.39
2022-11-30T08:15:19.190Z,81.52
2022-11-30T08:20:18.572Z,81.36
2022-11-30T08:25:21.226Z,81.42
2022-11-30T08:30:27.826Z,80.81
2022-11-30T08:35:34.145Z,80.65
2022-11-30T08:40:36.828Z,80.79
2022-11-30T08:45:39.441Z,81.09
2022-11-30T08:50:42.371Z,81.26
2022-11-30T08:55:59.540Z,81.21
2022-11-30T09:01:13.752Z,81.25
2022-11-30T09:06:20.687Z,81.04
2022-11-30T09:11:33.224Z,81.00
2022-11-30T09:16:35.973Z,81.04
2022-11-30T09:21:39.286Z,81.18
2022-11-30T09:26:41.984Z,80.99
2022-11-30T09:31:44.783Z,81.08
2022-11-30T09:36:47.374Z,81.22
2022-11-30T09:42:13.241Z,81.21
2022-11-30T09:48:14.497Z,81.17
2022-11-30T09:53:31.829Z,81.19
2022-11-30T09:58:52.743Z,81.54
2022-11-30T10:03:55.470Z,81.40
2022-11-30T10:09:39.413Z,81.54
2022-11-30T10:15:02.419Z,81.75
2022-11-30T10:20:24.550Z,81.93
2022-11-30T10:26:03.914Z,81.86
2022-11-30T10:31:15.795Z,81.98
2022-11-30T10:36:33.417Z,82.11
2022-11-30T10:41:48.053Z,82.19
2022-11-30T10:47:29.388Z,82.29
2022-11-30T10:52:48.837Z,82.20
2022-11-30T10:58:00.686Z,82.20
2022-11-30T11:03:22.927Z,82.05
2022-11-30T11:08:27.406Z,82.06
2022-11-30T11:13:39.475Z,82.14
2022-11-30T11:18:57.653Z,82.11
2022-11-30T11:24:10.577Z,82.24
2022-11-30T11:29:31.188Z,82.21
2022-11-30T11:34:36.816Z,82.28
2022-11-30T11:39:39.360Z,82.40
2022-11-30T11:44:42.447Z,81.99
2022-11-30T11:49:45.340Z,81.90
2022-11-30T11:55:02.724Z,82.07
2022-11-30T12:00:19.057Z,82.32
2022-11-30T12:05:32.375Z,82.14
2022-11-30T12:10:51.930Z,81.81
2022-11-30T12:16:11.690Z,81.83
2022-11-30T12:21:34.136Z,81.65
2022-11-30T12:27:03.975Z,81.57
2022-11-30T12:32:28.229Z,81.43
2022-11-30T12:37:58.048Z,81.57
2022-11-30T12:43:41.516Z,81.65
2022-11-30T12:48:51.717Z,81.32
2022-11-30T12:54:17.622Z,81.33
2022-11-30T12:59:29.606Z,81.33
2022-11-30T13:05:09.249Z,81.22
2022-11-30T13:10:44.731Z,81.24
2022-11-30T13:15:49.342Z,81.28
2022-11-30T13:21:29.334Z,81.39
2022-11-30T13:26:51.627Z,81.29
2022-11-30T13:32:34.297Z,81.32
2022-11-30T13:37:39.273Z,81.38
2022-11-30T13:42:50.094Z,81.26
2022-11-30T13:47:57.054Z,81.39
2022-11-30T13:53:26.093Z,81.51
2022-11-30T13:58:31.044Z,81.61
2022-11-30T14:03:33.475Z,81.61
2022-11-30T14:08:38.311Z,81.69
2022-11-30T14:13:41.673Z,81.54
2022-11-30T14:18:46.509Z,81.40
2022-11-30T14:23:58.244Z,81.38
2022-11-30T14:29:06.481Z,81.39
2022-11-30T14:34:18.857Z,81.49
2022-11-30T14:39:41.574Z,81.61
2022-11-30T14:44:44.333Z,81.79
2022-11-30T14:49:51.952Z,81.94
2022-11-30T14:55:32.465Z,82.05
2022-11-30T15:00:41.991Z,81.93
2022-11-30T15:05:44.422Z,81.75
2022-11-30T15:10:48.131Z,81.85
2022-11-30T15:15:56.890Z,81.94
2022-11-30T15:21:08.571Z,81.97
2022-11-30T15:26:25.648Z,82.16
2022-11-30T15:31:37.582Z,82.28
2022-11-30T15:36:40.966Z,82.21
2022-11-30T15:41:44.483Z,82.13
2022-11-30T15:47:24.197Z,82.00
2022-11-30T15:52:28.982Z,81.93
2022-11-30T15:57:59.233Z,82.03
2022-11-30T16:03:13.391Z,82.08
2022-11-30T16:08:18.014Z,82.23
2022-11-30T16:13:22.995Z,82.40
2022-11-30T16:18:28.259Z,82.38
2022-11-30T16:23:34.397Z,82.22
2022-11-30T16:28:36.935Z,82.04
2022-11-30T16:33:39.420Z,82.07
2022-11-30T16:38:42.320Z,82.20
2022-11-30T16:43:47.412Z,82.21
2022-11-30T16:48:50.378Z,82.21
2022-11-30T16:53:53.791Z,82.31
2022-11-30T16:58:56.398Z,82.17
2022-11-30T17:04:00.154Z,82.08
2022-11-30T17:09:03.853Z,82.12
2022-11-30T17:14:07.046Z,82.21
2022-11-30T17:19:09.519Z,82.36
2022-11-30T17:24:13.568Z,82.44
2022-11-30T17:29:15.959Z,82.40
2022-11-30T17:34:18.655Z,82.29
2022-11-30T17:39:20.946Z,82.20
2022-11-30T17:44:23.269Z,82.15
2022-11-30T17:49:25.732Z,82.11
2022-11-30T17:54:28.123Z,81.93
2022-11-30T17:59:30.512Z,82.00
2022-11-30T18:04:33.007Z,82.10
2022-11-30T18:09:40.959Z,82.18
2022-11-30T18:14:45.693Z,82.07
2022-11-30T18:19:48.105Z,81.86
2022-11-30T18:24:50.727Z,81.61
2022-11-30T18:29:53.186Z,81.48
2022-11-30T18:34:55.647Z,81.47
2022-11-30T18:39:58.035Z,81.32
2022-11-30T18:45:00.843Z,81.00
2022-11-30T18:50:03.645Z,80.60
2022-11-30T18:55:07.178Z,80.45
2022-11-30T19:00:10.471Z,80.55
2022-11-30T19:05:35.084Z,80.79
2022-11-30T19:10:39.796Z,80.46
2022-11-30T19:15:43.907Z,80.11
2022-11-30T19:20:47.785Z,80.06
2022-11-30T19:25:50.834Z,79.84
2022-11-30T19:30:53.230Z,79.61
2022-11-30T19:36:01.879Z,79.60
2022-11-30T19:41:10.676Z,79.52
2022-11-30T19:46:15.729Z,79.63
2022-11-30T19:51:18.942Z,79.61
2022-11-30T19:56:23.469Z,79.64
2022-11-30T20:01:27.682Z,79.29
2022-11-30T20:06:37.068Z,79.51
2022-11-30T20:11:40.109Z,79.11
2022-11-30T20:16:43.077Z,79.07
2022-11-30T20:21:48.242Z,78.88
2022-11-30T20:26:51.014Z,78.81
2022-11-30T20:31:53.537Z,78.64
2022-11-30T20:36:56.893Z,78.14
2022-11-30T20:41:59.949Z,77.72
2022-11-30T20:47:02.962Z,77.54
2022-11-30T20:52:05.998Z,77.68
2022-11-30T20:57:09.270Z,78.00
2022-11-30T21:02:12.104Z,77.78
2022-11-30T21:07:15.389Z,77.34
2022-11-30T21:12:18.019Z,77.00
2022-11-30T21:17:20.471Z,76.65
2022-11-30T21:22:22.925Z,76.18
2022-11-30T21:27:25.369Z,76.11
2022-11-30T21:32:27.642Z,76.11
2022-11-30T21:37:30.037Z,75.88
2022-11-30T21:42:32.528Z,75.61
2022-11-30T21:47:34.714Z,75.48
2022-11-30T21:52:37.244Z,75.79
2022-11-30T21:57:39.805Z,76.04
2022-11-30T22:02:42.343Z,75.89
2022-11-30T22:07:45.792Z,75.90
2022-11-30T22:12:48.215Z,76.04
2022-11-30T22:17:52.052Z,76.39
2022-11-30T22:22:54.323Z,76.40
2022-11-30T22:27:56.788Z,76.67
2022-11-30T22:32:59.303Z,76.56
2022-11-30T22:38:01.693Z,76.28
2022-11-30T22:43:04.187Z,76.14
2022-11-30T22:48:06.508Z,75.69
2022-11-30T22:53:10.007Z,75.38
2022-11-30T22:58:13.010Z,75.25
2022-11-30T23:03:15.842Z,75.40
2022-11-30T23:08:18.747Z,75.77
2022-11-30T23:13:21.310Z,75.89
2022-11-30T23:18:24.715Z,75.96
2022-11-30T23:23:27.213Z,75.65
2022-11-30T23:28:29.614Z,75.98
2022-11-30T23:33:31.996Z,76.31
2022-11-30T23:38:35.909Z,76.64
2022-11-30T23:43:39.584Z,76.82
2022-11-30T23:48:41.727Z,76.93
2022-11-30T23:53:44.531Z,76.96
2022-11-30T23:58:47.446Z,77.01
